createdAt,value
2019-01-04T00:02:29.404Z,7.33
2019-01-04T00:07:38.937Z,7.73
2019-01-04T00:12:48.044Z,7.65
2019-01-04T00:17:57.304Z,7.35
2019-01-04T00:23:06.686Z,7.09
2019-01-04T00:28:15.933Z,6.18
2019-01-04T00:33:25.154Z,6.15
2019-01-04T00:38:34.422Z,5.75
2019-01-04T00:43:43.557Z,5.99
2019-01-04T00:48:52.878Z,5.70
2019-01-04T00:54:01.969Z,5.83
2019-01-04T00:59:11.311Z,5.57
2019-01-04T01:04:20.477Z,6.27
2019-01-04T01:09:29.698Z,6.28
2019-01-04T01:14:38.902Z,6.73
2019-01-04T01:19:48.161Z,6.00
2019-01-04T01:24:57.353Z,5.94
2019-01-04T01:30:06.646Z,5.95
2019-01-04T01:35:15.717Z,6.20
2019-01-04T01:40:24.975Z,5.81
2019-01-04T01:45:34.159Z,6.26
2019-01-04T01:50:43.460Z,6.43
2019-01-04T01:55:52.593Z,5.85
2019-01-04T02:01:01.822Z,6.30
2019-01-04T02:06:10.947Z,6.88
2019-01-04T02:11:20.263Z,6.60
2019-01-04T02:16:29.485Z,6.38
2019-01-04T02:21:38.755Z,6.84
2019-01-04T02:26:48.024Z,6.68
2019-01-04T02:31:57.307Z,6.77
2019-01-04T02:37:06.445Z,7.15
2019-01-04T02:42:15.769Z,6.35
2019-01-04T02:47:24.960Z,6.28
2019-01-04T02:52:34.384Z,6.19
2019-01-04T02:57:43.566Z,6.54
2019-01-04T03:02:52.821Z,6.82
2019-01-04T03:08:01.919Z,6.62
2019-01-04T03:13:11.137Z,7.16
2019-01-04T03:18:20.524Z,7.20
2019-01-04T03:23:29.842Z,7.06
2019-01-04T03:28:39.061Z,7.82
2019-01-04T03:33:48.349Z,7.64
2019-01-04T03:38:57.439Z,8.16
2019-01-04T03:44:06.733Z,8.71
2019-01-04T03:49:15.861Z,9.42
2019-01-04T03:54:25.138Z,10.79
2019-01-04T03:59:34.233Z,9.68
2019-01-04T04:04:43.416Z,10.19
2019-01-04T04:09:52.609Z,10.27
2019-01-04T04:15:01.811Z,10.47
2019-01-04T04:20:11.023Z,10.28
2019-01-04T04:25:20.298Z,10.50
2019-01-04T04:30:29.429Z,11.19
2019-01-04T04:35:38.653Z,16.25
2019-01-04T04:40:47.852Z,13.25
2019-01-04T04:45:57.364Z,13.55
2019-01-04T04:51:06.730Z,12.56
2019-01-04T04:56:16.033Z,12.93
2019-01-04T05:01:25.597Z,12.86
2019-01-04T05:06:34.847Z,12.60
2019-01-04T05:11:43.941Z,12.07
2019-01-04T05:16:53.130Z,13.01
2019-01-04T05:22:02.533Z,13.72
2019-01-04T05:27:13.472Z,14.19
2019-01-04T05:32:12.561Z,14.18
2019-01-04T05:37:22.267Z,13.77
2019-01-04T05:42:31.452Z,13.59
2019-01-04T05:47:40.730Z,11.29
2019-01-04T05:52:50.000Z,10.08
2019-01-04T05:57:59.476Z,9.98
2019-01-04T06:03:08.683Z,12.49
2019-01-04T06:08:18.117Z,13.93
2019-01-04T06:13:27.286Z,14.29
2019-01-04T06:18:36.605Z,14.45
2019-01-04T06:23:45.805Z,14.02
2019-01-04T06:28:55.038Z,13.23
2019-01-04T06:34:04.253Z,13.15
2019-01-04T06:39:13.577Z,12.70
2019-01-04T06:44:23.010Z,10.97
2019-01-04T06:49:32.214Z,11.08
2019-01-04T06:54:41.780Z,10.62
2019-01-04T06:59:51.357Z,9.94
2019-01-04T07:05:00.731Z,9.22
2019-01-04T07:10:09.980Z,8.98
2019-01-04T07:15:19.217Z,9.56
2019-01-04T07:20:28.416Z,9.80
2019-01-04T07:25:37.730Z,9.24
2019-01-04T07:30:47.000Z,10.28
2019-01-04T07:35:56.162Z,8.90
2019-01-04T07:41:05.442Z,9.56
2019-01-04T07:46:14.547Z,10.11
2019-01-04T07:51:23.797Z,9.87
2019-01-04T07:56:32.981Z,9.26
2019-01-04T08:01:42.260Z,9.14
2019-01-04T08:06:51.459Z,7.40
2019-01-04T08:12:00.970Z,6.55
2019-01-04T08:17:10.184Z,5.79
2019-01-04T08:22:19.509Z,4.55
2019-01-04T08:27:28.685Z,3.48
2019-01-04T08:32:38.005Z,4.21
2019-01-04T08:37:47.826Z,4.67
2019-01-04T08:43:28.276Z,4.91
2019-01-04T08:48:37.437Z,4.82
2019-01-04T08:53:46.698Z,6.27
2019-01-04T08:58:55.796Z,4.74
2019-01-04T09:04:05.032Z,5.04
2019-01-04T09:09:14.172Z,5.55
2019-01-04T09:14:23.400Z,5.37
2019-01-04T09:19:32.760Z,6.31
2019-01-04T09:24:41.920Z,5.08
2019-01-04T09:29:51.286Z,6.06
2019-01-04T09:35:00.758Z,5.57
2019-01-04T09:40:09.915Z,6.09
2019-01-04T09:45:19.166Z,6.22
2019-01-04T09:50:28.513Z,5.97
2019-01-04T09:55:37.858Z,6.71
2019-01-04T10:00:46.925Z,7.49
2019-01-04T10:05:56.188Z,6.30
2019-01-04T10:11:05.287Z,6.46
2019-01-04T10:16:14.609Z,6.94
2019-01-04T10:21:23.731Z,8.63
2019-01-04T10:26:32.993Z,7.73
2019-01-04T10:31:42.254Z,7.88
2019-01-04T10:36:51.703Z,8.15
2019-01-04T10:42:01.085Z,7.18
2019-01-04T10:47:10.345Z,6.83
2019-01-04T10:52:19.446Z,7.60
2019-01-04T10:57:28.708Z,6.94
2019-01-04T11:02:37.891Z,8.63
2019-01-04T11:07:47.886Z,6.65
2019-01-04T11:12:57.112Z,6.92
2019-01-04T11:18:09.890Z,6.19
2019-01-04T11:23:15.118Z,6.96
2019-01-04T11:28:24.409Z,6.58
2019-01-04T11:33:33.543Z,7.02
2019-01-04T11:38:42.757Z,6.74
2019-01-04T11:43:52.322Z,6.65
2019-01-04T11:49:01.586Z,6.45
2019-01-04T11:54:10.736Z,7.02
2019-01-04T11:59:20.221Z,6.02
2019-01-04T12:04:29.382Z,6.13
2019-01-04T12:09:38.640Z,5.93
2019-01-04T12:14:47.863Z,6.93
2019-01-04T12:19:57.065Z,5.85
2019-01-04T12:25:06.222Z,6.11
2019-01-04T12:30:15.765Z,5.43
2019-01-04T12:35:24.877Z,5.54
2019-01-04T12:40:34.285Z,5.38
2019-01-04T12:45:43.482Z,5.38
2019-01-04T12:50:52.705Z,5.26
2019-01-04T12:56:01.901Z,4.98
2019-01-04T13:01:11.407Z,4.70
2019-01-04T13:06:20.822Z,4.93
2019-01-04T13:11:30.055Z,5.59
2019-01-04T13:16:39.286Z,4.92
2019-01-04T13:21:48.665Z,5.73
2019-01-04T13:26:57.844Z,6.05
2019-01-04T13:32:07.418Z,6.24
2019-01-04T13:37:16.526Z,6.42
2019-01-04T13:42:25.873Z,5.94
2019-01-04T13:47:35.034Z,6.39
2019-01-04T13:52:44.353Z,6.91
2019-01-04T13:57:53.762Z,7.35
2019-01-04T14:03:03.074Z,7.15
2019-01-04T14:08:12.134Z,7.44
2019-01-04T14:13:21.390Z,7.52
2019-01-04T14:18:30.482Z,8.66
2019-01-04T14:23:39.980Z,7.83
2019-01-04T14:28:49.157Z,7.78
2019-01-04T14:33:58.381Z,8.22
2019-01-04T14:39:07.761Z,7.87
2019-01-04T14:44:16.961Z,7.49
2019-01-04T14:49:26.329Z,7.41
2019-01-04T14:54:35.522Z,7.05
2019-01-04T14:59:44.621Z,9.05
2019-01-04T15:04:53.959Z,7.26
2019-01-04T15:10:03.070Z,7.06
2019-01-04T15:15:12.285Z,6.57
2019-01-04T15:20:21.462Z,7.47
2019-01-04T15:25:30.709Z,7.39
2019-01-04T15:30:39.896Z,6.72
2019-01-04T15:35:49.184Z,7.51
2019-01-04T15:40:58.348Z,7.97
2019-01-04T15:46:07.573Z,8.08
2019-01-04T15:51:16.738Z,8.79
2019-01-04T15:56:25.998Z,7.27
2019-01-04T16:01:36.334Z,6.77
2019-01-04T16:06:35.493Z,7.21
2019-01-04T16:11:44.592Z,7.17
2019-01-04T16:16:53.926Z,8.40
2019-01-04T16:22:03.092Z,6.81
2019-01-04T16:27:12.406Z,7.79
2019-01-04T16:32:21.582Z,7.63
2019-01-04T16:37:30.810Z,7.21
2019-01-04T16:42:39.849Z,7.93
2019-01-04T16:47:49.239Z,7.61
2019-01-04T16:52:59.574Z,7.74
2019-01-04T16:58:07.063Z,10.92
2019-01-04T17:03:16.162Z,10.94
2019-01-04T17:08:25.484Z,10.10
2019-01-04T17:13:34.656Z,11.26
2019-01-04T17:18:43.877Z,9.43
2019-01-04T17:23:53.012Z,9.36
2019-01-04T17:29:02.331Z,9.81
2019-01-04T17:34:11.409Z,8.53
2019-01-04T17:39:20.885Z,7.94
2019-01-04T17:44:29.980Z,7.96
2019-01-04T17:49:39.347Z,7.51
2019-01-04T17:54:48.530Z,7.28
2019-01-04T17:59:58.001Z,8.09
2019-01-04T18:05:07.187Z,7.10
2019-01-04T18:10:16.414Z,7.34
2019-01-04T18:15:26.068Z,7.16
2019-01-04T18:20:35.529Z,7.07
2019-01-04T18:25:44.713Z,6.42
2019-01-04T18:30:54.162Z,7.63
2019-01-04T18:36:03.642Z,7.50
2019-01-04T18:41:13.449Z,6.29
2019-01-04T18:46:22.804Z,7.00
2019-01-04T18:51:32.073Z,6.33
2019-01-04T18:56:41.276Z,6.77
2019-01-04T19:01:50.518Z,5.67
2019-01-04T19:06:59.613Z,5.75
2019-01-04T19:12:09.713Z,5.34
2019-01-04T19:17:09.005Z,6.12
2019-01-04T19:22:18.340Z,6.71
2019-01-04T19:27:27.531Z,6.60
2019-01-04T19:32:36.793Z,7.04
2019-01-04T19:37:45.961Z,7.55
2019-01-04T19:42:55.252Z,8.26
2019-01-04T19:48:04.505Z,7.53
2019-01-04T19:53:13.861Z,8.94
2019-01-04T19:58:23.040Z,7.77
2019-01-04T20:03:32.359Z,8.68
2019-01-04T20:08:41.537Z,7.75
2019-01-04T20:13:50.750Z,7.22
2019-01-04T20:18:59.912Z,6.08
2019-01-04T20:24:09.358Z,5.94
2019-01-04T20:29:18.563Z,5.97
2019-01-04T20:34:27.806Z,5.20
2019-01-04T20:39:36.974Z,5.84
2019-01-04T20:44:46.161Z,5.08
2019-01-04T20:49:55.509Z,5.24
2019-01-04T20:55:04.779Z,6.18
2019-01-04T21:00:13.885Z,4.49
2019-01-04T21:05:23.074Z,4.45
2019-01-04T21:10:32.209Z,4.15
2019-01-04T21:15:41.453Z,4.15
2019-01-04T21:20:50.913Z,4.87
2019-01-04T21:26:00.186Z,4.62
2019-01-04T21:31:09.357Z,4.16
2019-01-04T21:36:18.754Z,4.21
2019-01-04T21:41:27.893Z,4.40
2019-01-04T21:46:37.194Z,4.44
2019-01-04T21:51:46.304Z,4.09
2019-01-04T21:56:55.485Z,5.29
2019-01-04T22:02:04.575Z,4.31
2019-01-04T22:07:13.853Z,4.24
2019-01-04T22:12:23.029Z,3.59
2019-01-04T22:17:32.481Z,4.29
2019-01-04T22:22:41.657Z,4.41
2019-01-04T22:27:50.886Z,4.78
2019-01-04T22:33:00.019Z,4.67
2019-01-04T22:38:09.336Z,4.95
2019-01-04T22:43:18.426Z,4.49
2019-01-04T22:48:30.558Z,5.48
2019-01-04T22:53:29.614Z,4.89
2019-01-04T22:58:38.992Z,5.85
2019-01-04T23:03:48.170Z,7.10
2019-01-04T23:08:57.465Z,6.67
2019-01-04T23:14:06.577Z,7.16
2019-01-04T23:19:15.821Z,7.49
2019-01-04T23:24:25.192Z,7.40
2019-01-04T23:29:34.474Z,7.96
2019-01-04T23:34:43.700Z,7.98
2019-01-04T23:39:52.893Z,8.63
2019-01-04T23:45:01.960Z,8.15
2019-01-04T23:50:11.225Z,6.76
2019-01-04T23:55:20.369Z,5.65
